sensor_id;sensor_type;location;lat;lon;timestamp;temperature;humidity
3281;DHT22;1652;51.318;6.202;2023-07-13T00:01:50;16.50;99.90
3281;DHT22;1652;51.318;6.202;2023-07-13T00:04:23;16.50;99.90
3281;DHT22;1652;51.318;6.202;2023-07-13T00:06:53;16.50;99.90
3281;DHT22;1652;51.318;6.202;2023-07-13T00:09:20;16.50;99.90
3281;DHT22;1652;51.318;6.202;2023-07-13T00:11:54;16.40;99.90
3281;DHT22;1652;51.318;6.202;2023-07-13T00:14:22;16.30;99.90
3281;DHT22;1652;51.318;6.202;2023-07-13T00:16:50;16.30;99.90
3281;DHT22;1652;51.318;6.202;2023-07-13T00:19:17;16.30;99.90
3281;DHT22;1652;51.318;6.202;2023-07-13T00:21:44;16.30;99.90
3281;DHT22;1652;51.318;6.202;2023-07-13T00:24:13;16.30;99.90
3281;DHT22;1652;51.318;6.202;2023-07-13T00:26:41;16.30;99.90
3281;DHT22;1652;51.318;6.202;2023-07-13T00:29:12;16.30;99.90
3281;DHT22;1652;51.318;6.202;2023-07-13T00:31:39;16.40;99.90
3281;DHT22;1652;51.318;6.202;2023-07-13T00:34:06;16.30;99.90
3281;DHT22;1652;51.318;6.202;2023-07-13T00:36:32;16.30;99.90
3281;DHT22;1652;51.318;6.202;2023-07-13T00:38:59;16.30;99.90
3281;DHT22;1652;51.318;6.202;2023-07-13T00:41:26;16.20;99.90
3281;DHT22;1652;51.318;6.202;2023-07-13T00:43:53;16.20;99.90
3281;DHT22;1652;51.318;6.202;2023-07-13T00:46:22;16.20;99.90
3281;DHT22;1652;51.318;6.202;2023-07-13T00:48:50;16.30;99.90
3281;DHT22;1652;51.318;6.202;2023-07-13T00:51:21;16.30;99.90
3281;DHT22;1652;51.318;6.202;2023-07-13T00:53:48;16.30;99.90
3281;DHT22;1652;51.318;6.202;2023-07-13T00:56:16;16.30;99.90
3281;DHT22;1652;51.318;6.202;2023-07-13T00:58:43;16.30;99.90
3281;DHT22;1652;51.318;6.202;2023-07-13T01:01:10;16.30;99.90
3281;DHT22;1652;51.318;6.202;2023-07-13T01:03:39;16.30;99.90
3281;DHT22;1652;51.318;6.202;2023-07-13T01:06:08;16.20;99.90
3281;DHT22;1652;51.318;6.202;2023-07-13T01:08:35;16.20;99.90
3281;DHT22;1652;51.318;6.202;2023-07-13T01:11:02;16.10;99.90
3281;DHT22;1652;51.318;6.202;2023-07-13T01:13:29;16.00;99.90
3281;DHT22;1652;51.318;6.202;2023-07-13T01:15:58;16.10;99.90
3281;DHT22;1652;51.318;6.202;2023-07-13T01:18:28;16.10;99.90
3281;DHT22;1652;51.318;6.202;2023-07-13T01:20:58;16.10;99.90
3281;DHT22;1652;51.318;6.202;2023-07-13T01:23:26;16.00;99.90
3281;DHT22;1652;51.318;6.202;2023-07-13T01:25:53;15.90;99.90
3281;DHT22;1652;51.318;6.202;2023-07-13T01:28:22;15.90;99.90
3281;DHT22;1652;51.318;6.202;2023-07-13T01:30:50;15.90;99.90
3281;DHT22;1652;51.318;6.202;2023-07-13T01:33:17;15.80;99.90
3281;DHT22;1652;51.318;6.202;2023-07-13T01:35:46;15.80;99.90
3281;DHT22;1652;51.318;6.202;2023-07-13T01:38:15;15.70;99.90
3281;DHT22;1652;51.318;6.202;2023-07-13T01:40:42;15.80;99.90
3281;DHT22;1652;51.318;6.202;2023-07-13T01:43:10;15.80;99.90
3281;DHT22;1652;51.318;6.202;2023-07-13T01:45:37;15.80;99.90
3281;DHT22;1652;51.318;6.202;2023-07-13T01:48:04;16.00;99.90
3281;DHT22;1652;51.318;6.202;2023-07-13T01:50:34;15.90;99.90
3281;DHT22;1652;51.318;6.202;2023-07-13T01:53:01;15.80;99.90
3281;DHT22;1652;51.318;6.202;2023-07-13T01:55:29;15.80;99.90
3281;DHT22;1652;51.318;6.202;2023-07-13T01:57:56;15.80;99.90
3281;DHT22;1652;51.318;6.202;2023-07-13T02:00:24;15.70;99.90
3281;DHT22;1652;51.318;6.202;2023-07-13T02:02:51;15.70;99.90
3281;DHT22;1652;51.318;6.202;2023-07-13T02:05:19;15.70;99.90
3281;DHT22;1652;51.318;6.202;2023-07-13T02:07:46;15.70;99.90
3281;DHT22;1652;51.318;6.202;2023-07-13T02:10:13;15.70;99.90
3281;DHT22;1652;51.318;6.202;2023-07-13T02:12:41;15.60;99.90
3281;DHT22;1652;51.318;6.202;2023-07-13T02:15:09;15.50;99.90
3281;DHT22;1652;51.318;6.202;2023-07-13T02:17:36;15.50;99.90
3281;DHT22;1652;51.318;6.202;2023-07-13T02:20:04;15.50;99.90
3281;DHT22;1652;51.318;6.202;2023-07-13T02:22:31;15.50;99.90
3281;DHT22;1652;51.318;6.202;2023-07-13T02:24:59;15.50;99.90
3281;DHT22;1652;51.318;6.202;2023-07-13T02:27:26;15.50;99.90
3281;DHT22;1652;51.318;6.202;2023-07-13T02:29:53;15.40;99.90
3281;DHT22;1652;51.318;6.202;2023-07-13T02:32:20;15.40;99.90
3281;DHT22;1652;51.318;6.202;2023-07-13T02:34:47;15.50;99.90
3281;DHT22;1652;51.318;6.202;2023-07-13T02:37:14;15.50;99.90
3281;DHT22;1652;51.318;6.202;2023-07-13T02:39:40;15.50;99.90
3281;DHT22;1652;51.318;6.202;2023-07-13T02:42:08;15.50;99.90
3281;DHT22;1652;51.318;6.202;2023-07-13T02:44:34;15.40;99.90
3281;DHT22;1652;51.318;6.202;2023-07-13T02:47:01;15.40;99.90
3281;DHT22;1652;51.318;6.202;2023-07-13T02:49:28;15.30;99.90
3281;DHT22;1652;51.318;6.202;2023-07-13T02:51:55;15.20;99.90
3281;DHT22;1652;51.318;6.202;2023-07-13T02:54:22;15.10;99.90
3281;DHT22;1652;51.318;6.202;2023-07-13T02:56:49;15.00;99.90
3281;DHT22;1652;51.318;6.202;2023-07-13T02:59:16;14.90;99.90
3281;DHT22;1652;51.318;6.202;2023-07-13T03:01:43;14.90;99.90
3281;DHT22;1652;51.318;6.202;2023-07-13T03:04:10;14.90;99.90
3281;DHT22;1652;51.318;6.202;2023-07-13T03:06:37;14.80;99.90
3281;DHT22;1652;51.318;6.202;2023-07-13T03:09:04;14.80;99.90
3281;DHT22;1652;51.318;6.202;2023-07-13T03:11:31;14.80;99.90
3281;DHT22;1652;51.318;6.202;2023-07-13T03:13:58;14.80;99.90
3281;DHT22;1652;51.318;6.202;2023-07-13T03:16:25;14.80;99.90
3281;DHT22;1652;51.318;6.202;2023-07-13T03:18:52;14.90;99.90
3281;DHT22;1652;51.318;6.202;2023-07-13T03:21:19;14.80;99.90
3281;DHT22;1652;51.318;6.202;2023-07-13T03:23:46;14.80;99.90
3281;DHT22;1652;51.318;6.202;2023-07-13T03:26:17;14.80;99.90
3281;DHT22;1652;51.318;6.202;2023-07-13T03:28:44;14.80;99.90
3281;DHT22;1652;51.318;6.202;2023-07-13T03:31:17;14.80;99.90
3281;DHT22;1652;51.318;6.202;2023-07-13T03:33:45;14.80;99.90
3281;DHT22;1652;51.318;6.202;2023-07-13T03:36:16;14.70;99.90
3281;DHT22;1652;51.318;6.202;2023-07-13T03:38:52;14.80;99.90
3281;DHT22;1652;51.318;6.202;2023-07-13T03:41:21;14.80;99.90
3281;DHT22;1652;51.318;6.202;2023-07-13T03:43:48;14.80;99.90
3281;DHT22;1652;51.318;6.202;2023-07-13T03:46:16;14.80;99.90
3281;DHT22;1652;51.318;6.202;2023-07-13T03:48:45;14.90;99.90
3281;DHT22;1652;51.318;6.202;2023-07-13T03:51:14;14.80;99.90
3281;DHT22;1652;51.318;6.202;2023-07-13T03:53:42;14.90;99.90
3281;DHT22;1652;51.318;6.202;2023-07-13T03:56:10;14.90;99.90
3281;DHT22;1652;51.318;6.202;2023-07-13T03:58:39;15.00;99.90
3281;DHT22;1652;51.318;6.202;2023-07-13T04:01:08;15.00;99.90
3281;DHT22;1652;51.318;6.202;2023-07-13T04:03:36;15.10;99.90
3281;DHT22;1652;51.318;6.202;2023-07-13T04:06:05;15.10;99.90
3281;DHT22;1652;51.318;6.202;2023-07-13T04:08:35;15.20;99.90
3281;DHT22;1652;51.318;6.202;2023-07-13T04:11:03;15.20;99.90
3281;DHT22;1652;51.318;6.202;2023-07-13T04:13:30;15.40;99.90
3281;DHT22;1652;51.318;6.202;2023-07-13T04:15:57;15.70;99.90
3281;DHT22;1652;51.318;6.202;2023-07-13T04:18:24;16.10;99.90
3281;DHT22;1652;51.318;6.202;2023-07-13T04:20:51;16.40;99.90
3281;DHT22;1652;51.318;6.202;2023-07-13T04:23:18;16.60;99.90
3281;DHT22;1652;51.318;6.202;2023-07-13T04:25:47;16.80;99.90
3281;DHT22;1652;51.318;6.202;2023-07-13T04:28:16;17.10;99.90
3281;DHT22;1652;51.318;6.202;2023-07-13T04:30:44;17.30;99.90
3281;DHT22;1652;51.318;6.202;2023-07-13T04:33:11;17.50;99.90
3281;DHT22;1652;51.318;6.202;2023-07-13T04:35:38;17.70;99.90
3281;DHT22;1652;51.318;6.202;2023-07-13T04:38:05;18.00;99.90
3281;DHT22;1652;51.318;6.202;2023-07-13T04:40:33;18.10;99.90
3281;DHT22;1652;51.318;6.202;2023-07-13T04:42:59;18.20;99.90
3281;DHT22;1652;51.318;6.202;2023-07-13T04:45:26;18.20;99.90
3281;DHT22;1652;51.318;6.202;2023-07-13T04:47:53;18.20;99.90
3281;DHT22;1652;51.318;6.202;2023-07-13T04:50:20;18.10;99.90
3281;DHT22;1652;51.318;6.202;2023-07-13T04:52:52;18.00;99.90
3281;DHT22;1652;51.318;6.202;2023-07-13T04:55:20;18.10;99.90
3281;DHT22;1652;51.318;6.202;2023-07-13T04:57:47;18.10;99.90
3281;DHT22;1652;51.318;6.202;2023-07-13T05:00:14;18.00;99.90
3281;DHT22;1652;51.318;6.202;2023-07-13T05:02:44;18.20;99.90
3281;DHT22;1652;51.318;6.202;2023-07-13T05:05:13;18.70;99.90
3281;DHT22;1652;51.318;6.202;2023-07-13T05:07:40;19.20;99.90
3281;DHT22;1652;51.318;6.202;2023-07-13T05:10:07;19.80;99.90
3281;DHT22;1652;51.318;6.202;2023-07-13T05:12:34;20.40;99.90
3281;DHT22;1652;51.318;6.202;2023-07-13T05:15:02;20.70;99.90
3281;DHT22;1652;51.318;6.202;2023-07-13T05:17:29;20.90;99.90
3281;DHT22;1652;51.318;6.202;2023-07-13T05:19:56;21.30;99.90
3281;DHT22;1652;51.318;6.202;2023-07-13T05:22:23;21.60;99.90
3281;DHT22;1652;51.318;6.202;2023-07-13T05:24:50;21.70;99.90
3281;DHT22;1652;51.318;6.202;2023-07-13T05:27:17;22.00;99.90
3281;DHT22;1652;51.318;6.202;2023-07-13T05:29:44;22.00;99.90
3281;DHT22;1652;51.318;6.202;2023-07-13T05:32:11;22.30;99.90
3281;DHT22;1652;51.318;6.202;2023-07-13T05:34:38;22.20;99.90
3281;DHT22;1652;51.318;6.202;2023-07-13T05:37:05;21.80;99.90
3281;DHT22;1652;51.318;6.202;2023-07-13T05:39:32;21.50;99.90
3281;DHT22;1652;51.318;6.202;2023-07-13T05:41:58;21.10;99.90
3281;DHT22;1652;51.318;6.202;2023-07-13T05:44:25;20.60;99.90
3281;DHT22;1652;51.318;6.202;2023-07-13T05:46:52;19.90;99.90
3281;DHT22;1652;51.318;6.202;2023-07-13T05:49:19;19.70;99.90
3281;DHT22;1652;51.318;6.202;2023-07-13T05:51:46;19.50;99.90
3281;DHT22;1652;51.318;6.202;2023-07-13T05:54:13;19.40;99.90
3281;DHT22;1652;51.318;6.202;2023-07-13T05:56:40;19.40;99.90
3281;DHT22;1652;51.318;6.202;2023-07-13T05:59:07;19.70;99.90
3281;DHT22;1652;51.318;6.202;2023-07-13T06:01:33;19.60;99.90
3281;DHT22;1652;51.318;6.202;2023-07-13T06:04:00;19.50;99.90
3281;DHT22;1652;51.318;6.202;2023-07-13T06:06:28;19.40;99.90
3281;DHT22;1652;51.318;6.202;2023-07-13T06:08:54;19.30;99.90
3281;DHT22;1652;51.318;6.202;2023-07-13T06:11:23;19.10;99.90
3281;DHT22;1652;51.318;6.202;2023-07-13T06:13:51;18.80;99.90
3281;DHT22;1652;51.318;6.202;2023-07-13T06:16:18;18.80;99.90
3281;DHT22;1652;51.318;6.202;2023-07-13T06:18:46;18.90;99.90
3281;DHT22;1652;51.318;6.202;2023-07-13T06:21:15;18.80;99.90
3281;DHT22;1652;51.318;6.202;2023-07-13T06:23:43;18.80;99.90
3281;DHT22;1652;51.318;6.202;2023-07-13T06:26:11;18.80;99.90
3281;DHT22;1652;51.318;6.202;2023-07-13T06:28:38;18.80;99.90
3281;DHT22;1652;51.318;6.202;2023-07-13T06:31:08;19.00;99.90
3281;DHT22;1652;51.318;6.202;2023-07-13T06:33:36;19.00;99.90
3281;DHT22;1652;51.318;6.202;2023-07-13T06:36:04;18.90;99.90
3281;DHT22;1652;51.318;6.202;2023-07-13T06:38:32;19.00;99.90
3281;DHT22;1652;51.318;6.202;2023-07-13T06:40:59;19.10;99.90
3281;DHT22;1652;51.318;6.202;2023-07-13T06:43:26;19.20;99.90
3281;DHT22;1652;51.318;6.202;2023-07-13T06:45:55;19.30;99.90
3281;DHT22;1652;51.318;6.202;2023-07-13T06:48:22;19.30;99.90
3281;DHT22;1652;51.318;6.202;2023-07-13T06:50:49;19.30;99.90
3281;DHT22;1652;51.318;6.202;2023-07-13T06:53:17;19.40;99.90
3281;DHT22;1652;51.318;6.202;2023-07-13T06:55:45;19.50;99.90
3281;DHT22;1652;51.318;6.202;2023-07-13T06:58:12;19.70;99.90
3281;DHT22;1652;51.318;6.202;2023-07-13T07:00:39;19.70;99.90
3281;DHT22;1652;51.318;6.202;2023-07-13T07:03:07;19.70;99.90
3281;DHT22;1652;51.318;6.202;2023-07-13T07:05:34;19.70;99.90
3281;DHT22;1652;51.318;6.202;2023-07-13T07:08:01;19.60;99.90
3281;DHT22;1652;51.318;6.202;2023-07-13T07:10:30;19.50;99.90
3281;DHT22;1652;51.318;6.202;2023-07-13T07:12:57;19.40;99.90
3281;DHT22;1652;51.318;6.202;2023-07-13T07:15:25;19.20;99.90
3281;DHT22;1652;51.318;6.202;2023-07-13T07:17:52;19.20;99.90
3281;DHT22;1652;51.318;6.202;2023-07-13T07:20:19;19.40;99.90
3281;DHT22;1652;51.318;6.202;2023-07-13T07:22:47;19.40;99.90
3281;DHT22;1652;51.318;6.202;2023-07-13T07:25:15;19.70;99.90
3281;DHT22;1652;51.318;6.202;2023-07-13T07:27:42;19.80;99.90
3281;DHT22;1652;51.318;6.202;2023-07-13T07:30:12;19.80;99.90
3281;DHT22;1652;51.318;6.202;2023-07-13T07:32:42;19.90;99.90
3281;DHT22;1652;51.318;6.202;2023-07-13T07:35:12;20.00;99.90
3281;DHT22;1652;51.318;6.202;2023-07-13T07:37:39;20.00;99.90
3281;DHT22;1652;51.318;6.202;2023-07-13T07:40:09;19.90;99.90
3281;DHT22;1652;51.318;6.202;2023-07-13T07:42:39;19.80;99.90
3281;DHT22;1652;51.318;6.202;2023-07-13T07:45:06;19.70;99.90
3281;DHT22;1652;51.318;6.202;2023-07-13T07:47:33;19.60;99.90
3281;DHT22;1652;51.318;6.202;2023-07-13T07:50:00;19.70;99.90
3281;DHT22;1652;51.318;6.202;2023-07-13T07:52:27;19.70;99.90
3281;DHT22;1652;51.318;6.202;2023-07-13T07:54:54;19.80;99.90
3281;DHT22;1652;51.318;6.202;2023-07-13T07:57:24;19.90;99.90
3281;DHT22;1652;51.318;6.202;2023-07-13T07:59:54;19.90;99.90
3281;DHT22;1652;51.318;6.202;2023-07-13T08:02:25;20.10;99.90
3281;DHT22;1652;51.318;6.202;2023-07-13T08:04:55;20.00;99.90
3281;DHT22;1652;51.318;6.202;2023-07-13T08:07:24;20.00;99.90
3281;DHT22;1652;51.318;6.202;2023-07-13T08:09:54;20.20;99.90
3281;DHT22;1652;51.318;6.202;2023-07-13T08:12:21;20.50;99.90
3281;DHT22;1652;51.318;6.202;2023-07-13T08:14:51;20.60;99.90
3281;DHT22;1652;51.318;6.202;2023-07-13T08:17:25;20.70;99.90
3281;DHT22;1652;51.318;6.202;2023-07-13T08:19:52;20.80;99.90
3281;DHT22;1652;51.318;6.202;2023-07-13T08:22:19;21.00;99.90
3281;DHT22;1652;51.318;6.202;2023-07-13T08:24:46;21.60;99.90
3281;DHT22;1652;51.318;6.202;2023-07-13T08:27:14;22.00;99.90
3281;DHT22;1652;51.318;6.202;2023-07-13T08:29:41;22.10;99.90
3281;DHT22;1652;51.318;6.202;2023-07-13T08:32:08;22.10;99.90
3281;DHT22;1652;51.318;6.202;2023-07-13T08:34:38;22.20;99.90
3281;DHT22;1652;51.318;6.202;2023-07-13T08:37:05;22.40;99.90
3281;DHT22;1652;51.318;6.202;2023-07-13T08:39:32;22.50;99.90
3281;DHT22;1652;51.318;6.202;2023-07-13T08:42:27;23.00;99.90
3281;DHT22;1652;51.318;6.202;2023-07-13T08:45:23;23.20;99.90
3281;DHT22;1652;51.318;6.202;2023-07-13T08:47:54;23.60;99.90
3281;DHT22;1652;51.318;6.202;2023-07-13T08:50:29;23.80;99.90
3281;DHT22;1652;51.318;6.202;2023-07-13T08:52:58;24.10;99.90
3281;DHT22;1652;51.318;6.202;2023-07-13T08:55:30;23.90;99.90
3281;DHT22;1652;51.318;6.202;2023-07-13T08:58:15;23.40;99.90
3281;DHT22;1652;51.318;6.202;2023-07-13T09:03:57;22.60;99.90
3281;DHT22;1652;51.318;6.202;2023-07-13T09:06:34;22.90;99.90
3281;DHT22;1652;51.318;6.202;2023-07-13T09:09:13;23.20;99.90
3281;DHT22;1652;51.318;6.202;2023-07-13T09:11:56;23.70;99.90
3281;DHT22;1652;51.318;6.202;2023-07-13T09:14:44;24.40;99.90
3281;DHT22;1652;51.318;6.202;2023-07-13T09:17:23;25.20;99.90
3281;DHT22;1652;51.318;6.202;2023-07-13T09:20:29;26.10;99.90
3281;DHT22;1652;51.318;6.202;2023-07-13T09:22:48;25.60;99.90
3281;DHT22;1652;51.318;6.202;2023-07-13T09:27:53;24.30;99.90
3281;DHT22;1652;51.318;6.202;2023-07-13T09:32:55;23.70;99.90
3281;DHT22;1652;51.318;6.202;2023-07-13T09:35:27;24.80;99.90
3281;DHT22;1652;51.318;6.202;2023-07-13T09:38:18;25.60;99.90
3281;DHT22;1652;51.318;6.202;2023-07-13T09:40:59;24.90;99.90
3281;DHT22;1652;51.318;6.202;2023-07-13T09:43:27;24.60;99.90
3281;DHT22;1652;51.318;6.202;2023-07-13T09:45:55;24.70;99.90
3281;DHT22;1652;51.318;6.202;2023-07-13T09:48:22;24.60;99.90
3281;DHT22;1652;51.318;6.202;2023-07-13T09:50:54;24.60;99.90
3281;DHT22;1652;51.318;6.202;2023-07-13T09:53:22;24.90;99.90
3281;DHT22;1652;51.318;6.202;2023-07-13T09:55:50;25.00;99.90
3281;DHT22;1652;51.318;6.202;2023-07-13T09:58:24;24.40;99.90
3281;DHT22;1652;51.318;6.202;2023-07-13T10:01:00;23.90;99.90
3281;DHT22;1652;51.318;6.202;2023-07-13T10:03:35;23.20;99.90
3281;DHT22;1652;51.318;6.202;2023-07-13T10:06:16;22.90;99.90
3281;DHT22;1652;51.318;6.202;2023-07-13T10:08:47;22.70;99.90
3281;DHT22;1652;51.318;6.202;2023-07-13T10:13:53;23.20;99.90
3281;DHT22;1652;51.318;6.202;2023-07-13T10:16:25;23.60;99.90
3281;DHT22;1652;51.318;6.202;2023-07-13T10:18:58;24.00;99.90
3281;DHT22;1652;51.318;6.202;2023-07-13T10:21:30;24.40;99.90
3281;DHT22;1652;51.318;6.202;2023-07-13T10:24:19;24.30;99.90
3281;DHT22;1652;51.318;6.202;2023-07-13T10:27:03;24.20;99.90
3281;DHT22;1652;51.318;6.202;2023-07-13T10:29:37;24.20;99.90
3281;DHT22;1652;51.318;6.202;2023-07-13T10:32:09;24.00;99.90
3281;DHT22;1652;51.318;6.202;2023-07-13T10:34:39;24.20;99.90
3281;DHT22;1652;51.318;6.202;2023-07-13T10:37:18;24.30;99.90
3281;DHT22;1652;51.318;6.202;2023-07-13T10:39:47;24.30;99.90
3281;DHT22;1652;51.318;6.202;2023-07-13T10:42:21;24.30;99.90
3281;DHT22;1652;51.318;6.202;2023-07-13T10:44:51;24.40;99.90
3281;DHT22;1652;51.318;6.202;2023-07-13T10:47:18;24.40;99.90
3281;DHT22;1652;51.318;6.202;2023-07-13T10:49:47;24.30;99.90
3281;DHT22;1652;51.318;6.202;2023-07-13T10:52:40;24.20;99.90
3281;DHT22;1652;51.318;6.202;2023-07-13T10:55:37;24.20;99.90
3281;DHT22;1652;51.318;6.202;2023-07-13T10:58:20;24.10;99.90
3281;DHT22;1652;51.318;6.202;2023-07-13T11:01:06;24.10;99.90
3281;DHT22;1652;51.318;6.202;2023-07-13T11:19:08;24.60;99.90
3281;DHT22;1652;51.318;6.202;2023-07-13T11:24:56;24.50;99.90
3281;DHT22;1652;51.318;6.202;2023-07-13T11:27:32;24.60;99.90
3281;DHT22;1652;51.318;6.202;2023-07-13T11:30:25;24.60;99.90
3281;DHT22;1652;51.318;6.202;2023-07-13T11:33:11;24.40;99.90
3281;DHT22;1652;51.318;6.202;2023-07-13T11:35:47;24.30;99.90
3281;DHT22;1652;51.318;6.202;2023-07-13T11:38:21;24.30;99.90
3281;DHT22;1652;51.318;6.202;2023-07-13T11:40:52;24.40;99.90
3281;DHT22;1652;51.318;6.202;2023-07-13T11:43:22;24.40;99.90
3281;DHT22;1652;51.318;6.202;2023-07-13T11:45:50;24.40;99.90
3281;DHT22;1652;51.318;6.202;2023-07-13T11:48:20;24.70;99.90
3281;DHT22;1652;51.318;6.202;2023-07-13T11:51:19;25.10;99.90
3281;DHT22;1652;51.318;6.202;2023-07-13T11:53:50;25.40;99.90
3281;DHT22;1652;51.318;6.202;2023-07-13T11:56:18;25.60;99.90
3281;DHT22;1652;51.318;6.202;2023-07-13T11:58:50;25.70;99.90
3281;DHT22;1652;51.318;6.202;2023-07-13T12:01:23;25.40;99.90
3281;DHT22;1652;51.318;6.202;2023-07-13T12:03:52;25.10;99.90
3281;DHT22;1652;51.318;6.202;2023-07-13T12:06:31;24.80;99.90
3281;DHT22;1652;51.318;6.202;2023-07-13T12:09:00;24.80;99.90
3281;DHT22;1652;51.318;6.202;2023-07-13T12:11:27;24.80;99.90
3281;DHT22;1652;51.318;6.202;2023-07-13T12:13:54;24.90;99.90
3281;DHT22;1652;51.318;6.202;2023-07-13T12:16:32;24.90;99.90
3281;DHT22;1652;51.318;6.202;2023-07-13T12:19:00;25.00;99.90
3281;DHT22;1652;51.318;6.202;2023-07-13T12:21:37;25.00;99.90
3281;DHT22;1652;51.318;6.202;2023-07-13T12:24:04;24.90;99.90
3281;DHT22;1652;51.318;6.202;2023-07-13T12:26:32;24.80;99.90
3281;DHT22;1652;51.318;6.202;2023-07-13T12:29:01;24.80;99.90
3281;DHT22;1652;51.318;6.202;2023-07-13T12:31:46;24.70;99.90
3281;DHT22;1652;51.318;6.202;2023-07-13T12:34:15;24.60;99.90
3281;DHT22;1652;51.318;6.202;2023-07-13T12:36:51;24.30;99.90
3281;DHT22;1652;51.318;6.202;2023-07-13T12:39:32;24.20;99.90
3281;DHT22;1652;51.318;6.202;2023-07-13T12:42:31;24.20;99.90
3281;DHT22;1652;51.318;6.202;2023-07-13T12:45:01;24.30;99.90
3281;DHT22;1652;51.318;6.202;2023-07-13T12:47:29;24.40;99.90
3281;DHT22;1652;51.318;6.202;2023-07-13T12:50:00;24.40;99.90
3281;DHT22;1652;51.318;6.202;2023-07-13T12:52:34;24.50;99.90
3281;DHT22;1652;51.318;6.202;2023-07-13T12:55:24;24.60;99.90
3281;DHT22;1652;51.318;6.202;2023-07-13T12:57:54;24.60;99.90
3281;DHT22;1652;51.318;6.202;2023-07-13T13:00:31;24.60;99.90
3281;DHT22;1652;51.318;6.202;2023-07-13T13:03:06;24.50;99.90
3281;DHT22;1652;51.318;6.202;2023-07-13T13:06:04;24.50;99.90
3281;DHT22;1652;51.318;6.202;2023-07-13T13:08:35;24.60;99.90
3281;DHT22;1652;51.318;6.202;2023-07-13T13:11:03;24.60;99.90
3281;DHT22;1652;51.318;6.202;2023-07-13T13:13:30;24.60;99.90
3281;DHT22;1652;51.318;6.202;2023-07-13T13:16:02;24.60;99.90
3281;DHT22;1652;51.318;6.202;2023-07-13T13:18:33;24.60;99.90
3281;DHT22;1652;51.318;6.202;2023-07-13T13:21:00;24.60;99.90
3281;DHT22;1652;51.318;6.202;2023-07-13T13:23:27;24.80;99.90
3281;DHT22;1652;51.318;6.202;2023-07-13T13:25:54;24.90;99.90
3281;DHT22;1652;51.318;6.202;2023-07-13T13:28:22;25.10;99.90
3281;DHT22;1652;51.318;6.202;2023-07-13T13:30:50;25.10;99.90
3281;DHT22;1652;51.318;6.202;2023-07-13T13:33:19;24.90;99.90
3281;DHT22;1652;51.318;6.202;2023-07-13T13:35:46;25.00;99.90
3281;DHT22;1652;51.318;6.202;2023-07-13T13:38:15;25.10;99.90
3281;DHT22;1652;51.318;6.202;2023-07-13T13:40:43;25.00;99.90
3281;DHT22;1652;51.318;6.202;2023-07-13T13:43:15;25.00;99.90
3281;DHT22;1652;51.318;6.202;2023-07-13T13:45:46;24.90;99.90
3281;DHT22;1652;51.318;6.202;2023-07-13T13:48:18;24.80;99.90
3281;DHT22;1652;51.318;6.202;2023-07-13T13:50:47;24.90;99.90
3281;DHT22;1652;51.318;6.202;2023-07-13T13:53:14;24.80;99.90
3281;DHT22;1652;51.318;6.202;2023-07-13T13:55:42;24.60;99.90
3281;DHT22;1652;51.318;6.202;2023-07-13T13:58:09;24.50;99.90
3281;DHT22;1652;51.318;6.202;2023-07-13T14:00:38;24.60;99.90
3281;DHT22;1652;51.318;6.202;2023-07-13T14:03:17;24.60;99.90
3281;DHT22;1652;51.318;6.202;2023-07-13T14:05:45;24.70;99.90
3281;DHT22;1652;51.318;6.202;2023-07-13T14:08:18;24.50;99.90
3281;DHT22;1652;51.318;6.202;2023-07-13T14:10:49;24.50;99.90
3281;DHT22;1652;51.318;6.202;2023-07-13T14:13:36;24.50;99.90
3281;DHT22;1652;51.318;6.202;2023-07-13T14:16:10;24.40;99.90
3281;DHT22;1652;51.318;6.202;2023-07-13T14:18:39;24.10;99.90
3281;DHT22;1652;51.318;6.202;2023-07-13T14:21:18;23.60;99.90
3281;DHT22;1652;51.318;6.202;2023-07-13T14:23:47;23.20;99.90
3281;DHT22;1652;51.318;6.202;2023-07-13T14:26:20;22.80;99.90
3281;DHT22;1652;51.318;6.202;2023-07-13T14:28:49;22.40;99.90
3281;DHT22;1652;51.318;6.202;2023-07-13T14:31:17;22.20;99.90
3281;DHT22;1652;51.318;6.202;2023-07-13T14:33:44;22.10;99.90
3281;DHT22;1652;51.318;6.202;2023-07-13T14:38:54;21.70;99.90
3281;DHT22;1652;51.318;6.202;2023-07-13T14:41:21;21.60;99.90
3281;DHT22;1652;51.318;6.202;2023-07-13T14:43:48;21.60;99.90
3281;DHT22;1652;51.318;6.202;2023-07-13T14:46:27;21.50;99.90
3281;DHT22;1652;51.318;6.202;2023-07-13T14:49:04;21.40;99.90
3281;DHT22;1652;51.318;6.202;2023-07-13T14:51:32;21.30;99.90
3281;DHT22;1652;51.318;6.202;2023-07-13T14:54:04;21.40;99.90
3281;DHT22;1652;51.318;6.202;2023-07-13T14:59:03;21.30;99.90
3281;DHT22;1652;51.318;6.202;2023-07-13T15:01:31;21.30;99.90
3281;DHT22;1652;51.318;6.202;2023-07-13T15:03:59;21.20;99.90
3281;DHT22;1652;51.318;6.202;2023-07-13T15:06:26;21.10;99.90
3281;DHT22;1652;51.318;6.202;2023-07-13T15:08:53;21.20;99.90
3281;DHT22;1652;51.318;6.202;2023-07-13T15:11:19;21.20;99.90
3281;DHT22;1652;51.318;6.202;2023-07-13T15:13:46;21.20;99.90
3281;DHT22;1652;51.318;6.202;2023-07-13T15:16:21;21.30;99.90
3281;DHT22;1652;51.318;6.202;2023-07-13T15:18:49;21.30;99.90
3281;DHT22;1652;51.318;6.202;2023-07-13T15:21:22;21.30;99.90
3281;DHT22;1652;51.318;6.202;2023-07-13T15:23:51;21.40;99.90
3281;DHT22;1652;51.318;6.202;2023-07-13T15:26:19;21.40;99.90
3281;DHT22;1652;51.318;6.202;2023-07-13T15:28:46;21.40;99.90
3281;DHT22;1652;51.318;6.202;2023-07-13T15:31:25;21.40;99.90
3281;DHT22;1652;51.318;6.202;2023-07-13T15:33:55;21.50;99.90
3281;DHT22;1652;51.318;6.202;2023-07-13T15:36:23;21.70;99.90
3281;DHT22;1652;51.318;6.202;2023-07-13T15:38:54;21.70;99.90
3281;DHT22;1652;51.318;6.202;2023-07-13T15:41:26;21.70;99.90
3281;DHT22;1652;51.318;6.202;2023-07-13T15:43:56;21.90;99.90
3281;DHT22;1652;51.318;6.202;2023-07-13T15:46:27;21.80;99.90
3281;DHT22;1652;51.318;6.202;2023-07-13T15:48:57;21.90;99.90
3281;DHT22;1652;51.318;6.202;2023-07-13T15:51:27;22.20;99.90
3281;DHT22;1652;51.318;6.202;2023-07-13T15:53:59;22.20;99.90
3281;DHT22;1652;51.318;6.202;2023-07-13T15:58:56;22.50;99.90
3281;DHT22;1652;51.318;6.202;2023-07-13T16:01:24;22.50;99.90
3281;DHT22;1652;51.318;6.202;2023-07-13T16:03:51;22.50;99.90
3281;DHT22;1652;51.318;6.202;2023-07-13T16:06:36;22.70;99.90
3281;DHT22;1652;51.318;6.202;2023-07-13T16:09:07;22.80;99.90
3281;DHT22;1652;51.318;6.202;2023-07-13T16:11:38;22.90;99.90
3281;DHT22;1652;51.318;6.202;2023-07-13T16:14:06;22.90;99.90
3281;DHT22;1652;51.318;6.202;2023-07-13T16:16:34;22.80;99.90
3281;DHT22;1652;51.318;6.202;2023-07-13T16:19:03;22.60;99.90
3281;DHT22;1652;51.318;6.202;2023-07-13T16:21:57;22.70;99.90
3281;DHT22;1652;51.318;6.202;2023-07-13T16:24:26;22.70;99.90
3281;DHT22;1652;51.318;6.202;2023-07-13T16:26:54;22.60;99.90
3281;DHT22;1652;51.318;6.202;2023-07-13T16:29:26;22.50;99.90
3281;DHT22;1652;51.318;6.202;2023-07-13T16:34:38;22.70;99.90
3281;DHT22;1652;51.318;6.202;2023-07-13T16:37:17;22.70;99.90
3281;DHT22;1652;51.318;6.202;2023-07-13T16:39:48;22.70;99.90
3281;DHT22;1652;51.318;6.202;2023-07-13T16:42:15;22.70;99.90
3281;DHT22;1652;51.318;6.202;2023-07-13T16:44:42;22.50;99.90
3281;DHT22;1652;51.318;6.202;2023-07-13T16:47:14;22.40;99.90
3281;DHT22;1652;51.318;6.202;2023-07-13T16:49:42;22.10;99.90
3281;DHT22;1652;51.318;6.202;2023-07-13T16:52:13;22.10;99.90
3281;DHT22;1652;51.318;6.202;2023-07-13T16:54:41;22.10;99.90
3281;DHT22;1652;51.318;6.202;2023-07-13T16:57:20;22.00;99.90
3281;DHT22;1652;51.318;6.202;2023-07-13T16:59:48;21.90;99.90
3281;DHT22;1652;51.318;6.202;2023-07-13T17:05:00;21.80;99.90